x

Western Prince William Sound (46081) Weather Station

5:50am - Sun 5th Jul 2015 All times are UTC.

  • Average Period 3s
  • Wind
    4mph, 7mph gusts
  • Sea Temp 56°f
  • Air Temp 55°f
  • Sea Pressure 1026.7mb

More Historic Weather Station data

Upgrade to MSW Pro to gain access to the past 30 days of data for over 8000 Wavebouys and Weather Stations around the globe.

Join Pro

Comparision Forecast

View Surf forecast
   
Sun 07/05 5:50am  -   -  3s 4 7 mph 1026.7mb 56f 55f
4:50am 0.3ft  -  3s 7 9 mph 1026.4mb 56f 55f
3:50am  -   -  2s 4 7 mph 1026.2mb 56f 55f
2:50am 0.3ft  -  3s 7
mph
1026.1mb 56f 56f
1:50am 0.3ft  -  3s 7
mph
1025.9mb 56f 56f
12:50am 0.3ft  -  3s 7 9 mph 1025.8mb 56f 56f
Sat 07/04 11:50pm 0.3ft  -  2s 4 7 mph 1025.7mb 56f 56f
10:50pm 0.3ft  -  2s 7 9 mph 1025.4mb 56f 56f
9:50pm 0.3ft  -  3s 7 9 mph 1025.4mb 56f 55f
8:50pm 0.3ft  -  2s 9 11 mph 1025.4mb 56f 55f
7:50pm 0.3ft  -  2s 7 9 mph 1025.4mb 57f 55f
6:50pm 0.3ft  -  2s 9
mph
1025.2mb 56f 55f
5:50pm 0.3ft  -  3s 7 11 mph 1025mb 56f 55f
4:50pm 0.3ft  -  3s 7
mph
1024.9mb 57f 55f
3:50pm 0.3ft  -  2s 7 9 mph 1024.6mb 57f 55f
2:50pm 0.3ft  -  2s 9
mph
1024.4mb 56f 55f
1:50pm 0.3ft  -  2s 9
mph
1024.4mb 56f 55f
12:50pm 0.3ft  -  2s 7 13 mph 1024.3mb 56f 56f
11:50am 0.3ft  -  2s 9 11 mph 1024.1mb 57f 57f
10:50am 0.3ft  -  2s 4 7 mph 1024.3mb 56f 56f
9:50am  -   -  2s 4 7 mph 1024mb 57f 56f
8:50am  -   -  2s 2 4 mph 1024.1mb 56f 57f
7:50am  -   -  2s 2 4 mph 1023.9mb 57f 58f
6:50am 0.3ft  -  2s 7 9 mph 1023.6mb 57f 59f
5:50am 0.7ft  -  2s 11 13 mph 1023.3mb 57f 59f
4:50am 0.7ft  -  2s 11 13 mph 1023.1mb 57f 60f
3:50am 0.7ft  -  2s 13 16 mph 1023.1mb 57f 60f
2:50am 0.3ft  -  2s 9 11 mph 1023.2mb 58f 59f
1:50am 0.7ft  -  3s 11 13 mph 1023.2mb 57f 59f
12:50am 0.3ft  -  3s 9 11 mph 1023.4mb 57f 59f
Fri 07/03 11:50pm 0.3ft  -  3s 9 11 mph 1023.7mb 57f 58f
10:50pm 0.3ft  -  3s 9 13 mph 1023.9mb 57f 58f
9:50pm 0.3ft  -  3s 9 11 mph 1024mb 55f 57f
8:50pm 0.3ft  -  3s 7 9 mph 1024.1mb 54f 58f
7:50pm 0.3ft  -  3s 4 7 mph 1024.3mb 54f 57f
6:50pm 0.3ft  -  3s  -  mph 1024.6mb 54f 58f
5:50pm 0.3ft  -  3s  -  2 mph 1024.7mb 53f 55f
4:50pm 0.3ft  -  3s 2
mph
1024.4mb 53f 55f
3:50pm  -   -  3s 2
mph
1024.2mb 55f 53f
2:50pm  -   -  3s 4
mph
1023.7mb 54f 53f
1:50pm  -   -  3s 4
mph
1023mb 54f 53f
12:50pm  -   -  3s 4
mph
1022.5mb 54f 53f
11:50am  -   -  2s 2 4 mph 1021.9mb 54f 53f
10:50am  -   -  2s 4 7 mph 1021.3mb 54f 53f
9:50am  -   -  3s 4 7 mph 1020.7mb 54f 55f
8:50am  -   -  3s 4
mph
1020.2mb 54f 55f
7:50am 0.3ft  -  3s 9
mph
1019.3mb 54f 57f
6:50am  -   -  3s 2
mph
1018.7mb 54f 56f
5:50am 0.3ft  -  3s 4 7 mph 1018mb 54f 57f
4:50am 0.3ft  -  3s 9 13 mph 1017.4mb 54f 61f
3:50am 0.3ft  -  3s 13 16 mph 1016.9mb 55f 61f
2:50am 0.3ft  -  2s 11 16 mph 1016.4mb 55f 61f
1:50am 0.3ft  -  2s 11 16 mph 1016.1mb 54f 60f
12:50am 0.7ft  -  3s 11 13 mph 1015.6mb 56f 60f
Thu 07/02 11:50pm 0.7ft  -  3s 13
mph
1015.2mb 56f 60f
10:50pm 0.7ft  -  3s 13 16 mph 1014.7mb 55f 60f
9:50pm 0.7ft  -  3s 13 18 mph 1014.2mb 55f 60f
8:50pm 0.7ft  -  3s 11 13 mph 1013.7mb 55f 58f
7:50pm 1ft 3s 3s 13 16 mph 1013.4mb 54f 58f
6:50pm 0.3ft  -  3s 7 11 mph 1013.3mb 54f 56f
5:50pm 0.3ft  -  3s 4
mph
1013mb 53f 54f
4:50pm 0.7ft  -  2s 4 11 mph 1012.6mb 54f 53f
3:50pm 0.7ft  -  2s 7 9 mph 1012.3mb 54f 53f
2:50pm 1.3ft 2s 2s 13 20 mph 1012.1mb 53f 54f
1:50pm 1.6ft 3s 3s 22 27 mph 1011.5mb 54f 56f
12:50pm 2ft 3s 3s 20 27 mph 1011.2mb 54f 57f
11:50am 1.3ft 3s 3s 20 25 mph 1010.9mb 55f 57f
10:50am 1ft 2s 2s 22 29 mph 1011.1mb 55f 58f
9:50am 0.3ft  -  2s 16 20 mph 1012mb 54f 57f
8:50am  -   -  3s 7 9 mph 1013mb 54f 53f
7:50am 0.3ft  -  3s 9 11 mph 1013.6mb 54f 53f
6:50am  -   -  3s 2 4 mph 1014.2mb 54f 54f
5:50am 0.3ft  -  3s 7
mph
1014.8mb 54f 56f
4:50am  -   -  3s 9 11 mph 1015.7mb 54f 57f
3:50am  -   -  3s 11 13 mph 1016.5mb 54f 57f
2:50am  -   -  3s 11 13 mph 1017.5mb 54f 57f
1:50am 0.3ft  -  3s 9 11 mph 1018.3mb 55f 56f
12:50am 0.3ft  -  3s 11
mph
1019.1mb 55f 56f
Wed 07/01 11:50pm 0.3ft  -  3s 9 11 mph 1019.9mb 56f 56f
10:50pm 0.3ft  -  3s 11
mph
1020.7mb 56f 55f
9:50pm 0.3ft  -  3s 2 4 mph 1021.5mb 56f 53f
8:50pm  -   -  3s 2 4 mph 1022.2mb 56f 53f
7:50pm 0.3ft  -  3s 2 4 mph 1022.8mb 55f 51f
6:50pm  -   -  4s 7 9 mph 1023.3mb 55f 51f
5:50pm  -   -  3s 7 9 mph 1023.7mb 55f 51f
4:50pm 0.3ft  -  3s 4 7 mph 1023.9mb 55f 50f
3:50pm 0.7ft  -  2s 7 9 mph 1024.1mb 55f 51f
2:50pm 0.7ft  -  2s 9
mph
1024.4mb 55f 50f
1:50pm 0.3ft  -  2s 9 11 mph 1024.4mb 55f 49f
12:50pm 0.3ft  -  2s 11 13 mph 1024.1mb 55f 50f
11:50am  -   -  2s 9
mph
1024.1mb 54f 50f
10:50am  -   -  2s 7 9 mph 1024.3mb 55f 51f
9:50am 0.3ft  -  2s 7
mph
1024.4mb 55f 51f
8:50am 0.3ft  -  2s 4 7 mph 1024.3mb 55f 52f
7:50am 0.3ft  -  2s 7
mph
1024.2mb 54f 52f